Cason J. Callaway — WDH7556 — position and weather

sailwx.info

Track history (hours):
 
Tides and Currents Weather Stations Pressure Air Temp Water Temp Dewpoint Dewpoint Depression Visibility Wind Speed Wind Dir Waves Ship Positions

Cason J. Callaway

Owner: Great Lakes Fleet, Inc., Homewood, IL. More information available from US FCC via Universal Licensing System and Coast Guard Vessel Documentation Center.

Last reported at 2018-Jun-23 00:00 UTC. Time now 2018-Jun-23 04:42 UTC.
Position N 47°00' W 085°48'.

Length 240 m; draft 7 m.

Type: Cargo ship. MMSI: 366971340.

Wind from 040 at 14 knots

Barometer 1012.5 mb
Air temperature 7.7 ° C
Visibility: greater than 27.0 NM

Date/timePositionNaut miles runAvg speedWind from/ knotsBaromVisibWave heightAir tempDewpointWater temp
2018-Jun-23 00:00N 47°00' W 085°48'93 8.0 040 / 141012.527.0 7.7
2018-Jun-22 12:18N 46°04' W 083°60'311.4
2018-Jun-22 12:00N 46°02' W 083°55'5 9.7
2018-Jun-22 11:30N 45°58' W 083°54'612.7
2018-Jun-22 11:00N 45°51' W 083°52'612.7
2018-Jun-22 10:30N 45°45' W 083°51'612.7
2018-Jun-22 10:00N 45°39' W 083°49'712.9
2018-Jun-22 09:30N 45°32' W 083°48'612.1
2018-Jun-22 09:01N 45°27' W 083°46'2 3.3
2018-Jun-22 08:30N 45°25' W 083°47'0 0.9
2018-Jun-22 08:00N 45°25' W 083°47'0 0.0
2018-Jun-22 07:29N 45°25' W 083°47'0 0.1
2018-Jun-22 06:59N 45°25' W 083°47'0 0.0
2018-Jun-22 06:29N 45°25' W 083°47'0 0.0
2018-Jun-22 05:56N 45°25' W 083°47'0 0.1
2018-Jun-22 05:29N 45°25' W 083°47'0 0.0
2018-Jun-22 04:59N 45°25' W 083°47'0 0.0
2018-Jun-22 04:29N 45°25' W 083°47'0 0.0
2018-Jun-22 03:59N 45°25' W 083°47'0 0.0
2018-Jun-22 03:29N 45°25' W 083°47'0 0.0
2018-Jun-22 02:59N 45°25' W 083°47'0 0.0
2018-Jun-22 02:29N 45°25' W 083°47'0 0.0
2018-Jun-22 01:56N 45°25' W 083°47'0 0.0
2018-Jun-22 01:29N 45°25' W 083°47'0 0.0
2018-Jun-22 00:59N 45°25' W 083°47'0 0.0
2018-Jun-22 00:29N 45°25' W 083°47'0 0.0
2018-Jun-21 23:59N 45°25' W 083°47'0 0.0
2018-Jun-21 23:29N 45°25' W 083°47'0 0.0
2018-Jun-21 22:59N 45°25' W 083°47'0 0.0
2018-Jun-21 22:29N 45°25' W 083°47'0 0.0
2018-Jun-21 21:59N 45°25' W 083°47'0 0.0
2018-Jun-21 21:29N 45°25' W 083°47'0 0.0
2018-Jun-21 20:59N 45°25' W 083°47'0 0.0
2018-Jun-21 20:29N 45°25' W 083°47'0 0.0
2018-Jun-21 19:58N 45°25' W 083°47'0 0.0
2018-Jun-21 19:29N 45°25' W 083°47'0 0.0
2018-Jun-21 18:59N 45°25' W 083°47'0 0.0
2018-Jun-21 18:29N 45°25' W 083°47'0 0.0
2018-Jun-21 17:58N 45°25' W 083°47'0 0.0
2018-Jun-21 17:29N 45°25' W 083°47'0 0.0
2018-Jun-21 16:59N 45°25' W 083°47'0 0.0
2018-Jun-21 16:29N 45°25' W 083°47'0 0.0
2018-Jun-21 15:59N 45°25' W 083°47'0 0.0
2018-Jun-21 15:29N 45°25' W 083°47'0 0.0
2018-Jun-21 14:56N 45°25' W 083°47'0 0.0
2018-Jun-21 14:28N 45°25' W 083°47'0 0.1
2018-Jun-21 13:58N 45°25' W 083°47'0 0.0
2018-Jun-21 13:28N 45°25' W 083°47'0 0.0
2018-Jun-21 12:59N 45°25' W 083°47'0 0.0
2018-Jun-21 12:29N 45°25' W 083°47'0 0.1
2018-Jun-21 11:58N 45°25' W 083°47'0 0.0
2018-Jun-21 11:28N 45°25' W 083°47'0 0.0
2018-Jun-21 11:00N 45°25' W 083°47'0 0.6
2018-Jun-21 10:30N 45°25' W 083°47'2 3.3
2018-Jun-21 10:00N 45°26' W 083°45'510.8
2018-Jun-21 09:30N 45°26' W 083°37'712.9
2018-Jun-21 09:00N 45°23' W 083°28'612.7
2018-Jun-21 08:30N 45°19' W 083°22'117 3.0
2018-Jun-19 18:00N 43°30' W 082°24'12611.8 350 / 101019.2 1.1 15.5
2018-Jun-19 07:19N 45°27' W 083°30'412.9
2018-Jun-19 07:00N 45°29' W 083°35'712.9
2018-Jun-19 06:29N 45°32' W 083°43'2912.3
2018-Jun-19 04:11N 45°41' W 084°22'512.6
2018-Jun-19 03:45N 45°42' W 084°29'312.8
2018-Jun-19 03:30N 45°44' W 084°33'712.8
2018-Jun-19 02:59N 45°48' W 084°41'612.6
2018-Jun-19 02:30N 45°50' W 084°49'612.5
2018-Jun-19 01:59N 45°50' W 084°58'612.7
2018-Jun-19 01:30N 45°51' W 085°07'712.7
2018-Jun-19 00:59N 45°52' W 085°16'612.7
2018-Jun-19 00:31N 45°53' W 085°25'612.6
2018-Jun-19 00:00N 45°53' W 085°34'49 2.7
2018-Jun-18 06:00N 45°12' W 086°12'5012.4 160 / 121012.5 0.3 16.1
2018-Jun-18 02:00N 44°24' W 086°30'6713.5 200 / 211013.2 5.4 15.5
2018-Jun-17 21:00N 43°18' W 086°48'4314.3 220 / 201016.5 5.4 18.8 12.2
2018-Jun-17 18:00N 42°36' W 087°00'38 2.4 220 / 151017.2 5.4 24.9
2018-Jun-17 02:00N 42°00' W 087°18'9812.2 180 / 191015.510.8 23.3
2018-Jun-16 18:00N 43°36' W 086°54'6212.5 220 / 251016.5 5.4 18.8
2018-Jun-16 13:00N 44°36' W 086°30'7512.4 210 / 141015.2 1.1 12.7
2018-Jun-16 06:59N 45°46' W 085°53'612.5
2018-Jun-16 06:30N 45°49' W 085°46'612.3
2018-Jun-16 06:00N 45°52' W 085°38'2156.2
2018-Jun-16 06:00N 45°54' W 085°36'4 8.7 160 / 51015.927.0 16.1
2018-Jun-16 05:30N 45°54' W 085°30'612.4
2018-Jun-16 05:00N 45°53' W 085°21'612.6
2018-Jun-16 04:30N 45°52' W 085°12'612.7
2018-Jun-16 04:00N 45°51' W 085°03'612.6
2018-Jun-16 03:30N 45°50' W 084°54'712.6
2018-Jun-16 02:59N 45°49' W 084°45'612.3
2018-Jun-16 02:28N 45°46' W 084°37'612.6
2018-Jun-16 01:58N 45°43' W 084°29'611.8
2018-Jun-16 01:26N 45°41' W 084°21'1712.0
2018-Jun-15 23:59N 45°33' W 083°58'612.8
2018-Jun-15 23:30N 45°30' W 083°51'610.8
2018-Jun-15 22:59N 45°25' W 083°46'1 1.5
2018-Jun-15 22:30N 45°25' W 083°47'0 0.5
2018-Jun-15 22:00N 45°25' W 083°47'0 0.1
2018-Jun-15 21:28N 45°25' W 083°47'0 0.0
2018-Jun-15 20:55N 45°25' W 083°47'0 0.0
2018-Jun-15 20:28N 45°25' W 083°47'0 0.1
2018-Jun-15 19:58N 45°25' W 083°47'0 0.0
2018-Jun-15 19:28N 45°25' W 083°47'0 0.0
2018-Jun-15 18:58N 45°25' W 083°47'0 0.0
2018-Jun-15 18:30N 45°25' W 083°47'0 0.0
2018-Jun-15 17:58N 45°25' W 083°47'0 0.0
2018-Jun-15 17:28N 45°25' W 083°47'0 0.0
2018-Jun-15 16:58N 45°25' W 083°47'0 0.0
2018-Jun-15 16:28N 45°25' W 083°47'0 0.0
2018-Jun-15 15:58N 45°25' W 083°47'0 0.0
2018-Jun-15 15:28N 45°25' W 083°47'0 0.1
2018-Jun-15 14:58N 45°25' W 083°47'0 0.0
2018-Jun-15 14:28N 45°25' W 083°47'0 0.0
2018-Jun-15 13:58N 45°25' W 083°47'0 0.0
2018-Jun-15 13:28N 45°25' W 083°47'0 0.0
2018-Jun-15 12:59N 45°25' W 083°47'0 0.1
2018-Jun-15 12:28N 45°25' W 083°47'0 0.0
2018-Jun-15 11:58N 45°25' W 083°47'0 0.1
2018-Jun-15 11:28N 45°25' W 083°47'0 0.0
2018-Jun-15 10:58N 45°25' W 083°47'0 0.0
2018-Jun-15 10:28N 45°25' W 083°47'0 0.3
2018-Jun-15 10:00N 45°25' W 083°47'1 2.5
2018-Jun-15 09:30N 45°25' W 083°45'5 9.4
2018-Jun-15 09:00N 45°26' W 083°39'612.6
2018-Jun-15 08:30N 45°24' W 083°30'612.1
2018-Jun-15 08:00N 45°20' W 083°23'2914.5
2018-Jun-15 06:00N 44°54' W 083°06'73 2.2 340 / 201018.627.0 11.1
2018-Jun-13 21:00N 43°48' W 082°24'10612.9 300 / 201011.527.0 13.3 9.9
2018-Jun-13 12:46N 45°24' W 083°29'312.7
2018-Jun-13 12:30N 45°25' W 083°33'612.6
2018-Jun-13 12:01N 45°26' W 083°42'3 6.3
2018-Jun-13 11:30N 45°25' W 083°46'1 1.5
2018-Jun-13 11:00N 45°25' W 083°47'0 0.1
2018-Jun-13 10:30N 45°25' W 083°47'0 0.1
2018-Jun-13 10:00N 45°25' W 083°47'0 0.0
2018-Jun-13 09:30N 45°25' W 083°47'0 0.0
2018-Jun-13 09:00N 45°25' W 083°47'0 0.1
2018-Jun-13 08:30N 45°25' W 083°47'0 0.1
2018-Jun-13 08:00N 45°25' W 083°47'0 0.1
2018-Jun-13 07:30N 45°25' W 083°47'0 0.0
2018-Jun-13 07:00N 45°25' W 083°47'0 0.0
2018-Jun-13 06:31N 45°25' W 083°47'0 0.0
2018-Jun-13 04:05N 45°25' W 083°47'0 0.0
2018-Jun-13 04:00N 45°25' W 083°47'0 0.0
2018-Jun-13 03:29N 45°25' W 083°47'0 0.0
2018-Jun-13 03:00N 45°25' W 083°47'0 0.0
2018-Jun-13 02:30N 45°25' W 083°47'0 0.0
2018-Jun-13 02:00N 45°25' W 083°47'0 0.0
2018-Jun-13 01:31N 45°25' W 083°47'0 0.0
2018-Jun-13 01:00N 45°25' W 083°47'0 0.0
2018-Jun-13 00:30N 45°25' W 083°47'0 0.0
2018-Jun-13 00:00N 45°25' W 083°47'  
Track history (hours):
 
Tides and Currents Weather Stations Pressure Air Temp Water Temp Dewpoint Dewpoint Depression Visibility Wind Speed Wind Dir Waves Ship Positions

Cason J. Callaway

Owner: Great Lakes Fleet, Inc., Homewood, IL. More information available from US FCC via Universal Licensing System and Coast Guard Vessel Documentation Center.

Last reported at 2018-Jun-23 00:00 UTC. Time now 2018-Jun-23 04:42 UTC.
Position N 47°00' W 085°48'.

Length 240 m; draft 7 m.

Type: Cargo ship. MMSI: 366971340.

Wind from 040 at 14 knots

Barometer 1012.5 mb
Air temperature 7.7 ° C
Visibility: greater than 27.0 NM

Date/timePositionNaut miles runAvg speedWind from/ knotsBaromVisibWave heightAir tempDewpointWater temp
2018-Jun-23 00:00N 47°00' W 085°48'93 8.0 040 / 141012.527.0 7.7
2018-Jun-22 12:18N 46°04' W 083°60'311.4
2018-Jun-22 12:00N 46°02' W 083°55'5 9.7
2018-Jun-22 11:30N 45°58' W 083°54'612.7
2018-Jun-22 11:00N 45°51' W 083°52'612.7
2018-Jun-22 10:30N 45°45' W 083°51'612.7
2018-Jun-22 10:00N 45°39' W 083°49'712.9
2018-Jun-22 09:30N 45°32' W 083°48'612.1
2018-Jun-22 09:01N 45°27' W 083°46'2 3.3
2018-Jun-22 08:30N 45°25' W 083°47'0 0.9
2018-Jun-22 08:00N 45°25' W 083°47'0 0.0
2018-Jun-22 07:29N 45°25' W 083°47'0 0.1
2018-Jun-22 06:59N 45°25' W 083°47'0 0.0
2018-Jun-22 06:29N 45°25' W 083°47'0 0.0
2018-Jun-22 05:56N 45°25' W 083°47'0 0.1
2018-Jun-22 05:29N 45°25' W 083°47'0 0.0
2018-Jun-22 04:59N 45°25' W 083°47'0 0.0
2018-Jun-22 04:29N 45°25' W 083°47'0 0.0
2018-Jun-22 03:59N 45°25' W 083°47'0 0.0
2018-Jun-22 03:29N 45°25' W 083°47'0 0.0
2018-Jun-22 02:59N 45°25' W 083°47'0 0.0
2018-Jun-22 02:29N 45°25' W 083°47'0 0.0
2018-Jun-22 01:56N 45°25' W 083°47'0 0.0
2018-Jun-22 01:29N 45°25' W 083°47'0 0.0
2018-Jun-22 00:59N 45°25' W 083°47'0 0.0
2018-Jun-22 00:29N 45°25' W 083°47'0 0.0
2018-Jun-21 23:59N 45°25' W 083°47'0 0.0
2018-Jun-21 23:29N 45°25' W 083°47'0 0.0
2018-Jun-21 22:59N 45°25' W 083°47'0 0.0
2018-Jun-21 22:29N 45°25' W 083°47'0 0.0
2018-Jun-21 21:59N 45°25' W 083°47'0 0.0
2018-Jun-21 21:29N 45°25' W 083°47'0 0.0
2018-Jun-21 20:59N 45°25' W 083°47'0 0.0
2018-Jun-21 20:29N 45°25' W 083°47'0 0.0
2018-Jun-21 19:58N 45°25' W 083°47'0 0.0
2018-Jun-21 19:29N 45°25' W 083°47'0 0.0
2018-Jun-21 18:59N 45°25' W 083°47'0 0.0
2018-Jun-21 18:29N 45°25' W 083°47'0 0.0
2018-Jun-21 17:58N 45°25' W 083°47'0 0.0
2018-Jun-21 17:29N 45°25' W 083°47'0 0.0
2018-Jun-21 16:59N 45°25' W 083°47'0 0.0
2018-Jun-21 16:29N 45°25' W 083°47'0 0.0
2018-Jun-21 15:59N 45°25' W 083°47'0 0.0
2018-Jun-21 15:29N 45°25' W 083°47'0 0.0
2018-Jun-21 14:56N 45°25' W 083°47'0 0.0
2018-Jun-21 14:28N 45°25' W 083°47'0 0.1
2018-Jun-21 13:58N 45°25' W 083°47'0 0.0
2018-Jun-21 13:28N 45°25' W 083°47'0 0.0
2018-Jun-21 12:59N 45°25' W 083°47'0 0.0
2018-Jun-21 12:29N 45°25' W 083°47'0 0.1
2018-Jun-21 11:58N 45°25' W 083°47'0 0.0
2018-Jun-21 11:28N 45°25' W 083°47'0 0.0
2018-Jun-21 11:00N 45°25' W 083°47'0 0.6
2018-Jun-21 10:30N 45°25' W 083°47'2 3.3
2018-Jun-21 10:00N 45°26' W 083°45'510.8
2018-Jun-21 09:30N 45°26' W 083°37'712.9
2018-Jun-21 09:00N 45°23' W 083°28'612.7
2018-Jun-21 08:30N 45°19' W 083°22'117 3.0
2018-Jun-19 18:00N 43°30' W 082°24'12611.8 350 / 101019.2 1.1 15.5
2018-Jun-19 07:19N 45°27' W 083°30'412.9
2018-Jun-19 07:00N 45°29' W 083°35'712.9
2018-Jun-19 06:29N 45°32' W 083°43'2912.3
2018-Jun-19 04:11N 45°41' W 084°22'512.6
2018-Jun-19 03:45N 45°42' W 084°29'312.8
2018-Jun-19 03:30N 45°44' W 084°33'712.8
2018-Jun-19 02:59N 45°48' W 084°41'612.6
2018-Jun-19 02:30N 45°50' W 084°49'612.5
2018-Jun-19 01:59N 45°50' W 084°58'612.7
2018-Jun-19 01:30N 45°51' W 085°07'712.7
2018-Jun-19 00:59N 45°52' W 085°16'612.7
2018-Jun-19 00:31N 45°53' W 085°25'612.6
2018-Jun-19 00:00N 45°53' W 085°34'49 2.7
2018-Jun-18 06:00N 45°12' W 086°12'5012.4 160 / 121012.5 0.3 16.1
2018-Jun-18 02:00N 44°24' W 086°30'6713.5 200 / 211013.2 5.4 15.5
2018-Jun-17 21:00N 43°18' W 086°48'4314.3 220 / 201016.5 5.4 18.8 12.2
2018-Jun-17 18:00N 42°36' W 087°00'38 2.4 220 / 151017.2 5.4 24.9
2018-Jun-17 02:00N 42°00' W 087°18'9812.2 180 / 191015.510.8 23.3
2018-Jun-16 18:00N 43°36' W 086°54'6212.5 220 / 251016.5 5.4 18.8
2018-Jun-16 13:00N 44°36' W 086°30'7512.4 210 / 141015.2 1.1 12.7
2018-Jun-16 06:59N 45°46' W 085°53'612.5
2018-Jun-16 06:30N 45°49' W 085°46'612.3
2018-Jun-16 06:00N 45°52' W 085°38'2156.2
2018-Jun-16 06:00N 45°54' W 085°36'4 8.7 160 / 51015.927.0 16.1
2018-Jun-16 05:30N 45°54' W 085°30'612.4
2018-Jun-16 05:00N 45°53' W 085°21'612.6
2018-Jun-16 04:30N 45°52' W 085°12'612.7
2018-Jun-16 04:00N 45°51' W 085°03'612.6
2018-Jun-16 03:30N 45°50' W 084°54'712.6
2018-Jun-16 02:59N 45°49' W 084°45'612.3
2018-Jun-16 02:28N 45°46' W 084°37'612.6
2018-Jun-16 01:58N 45°43' W 084°29'611.8
2018-Jun-16 01:26N 45°41' W 084°21'1712.0
2018-Jun-15 23:59N 45°33' W 083°58'612.8
2018-Jun-15 23:30N 45°30' W 083°51'610.8
2018-Jun-15 22:59N 45°25' W 083°46'1 1.5
2018-Jun-15 22:30N 45°25' W 083°47'0 0.5
2018-Jun-15 22:00N 45°25' W 083°47'0 0.1
2018-Jun-15 21:28N 45°25' W 083°47'0 0.0
2018-Jun-15 20:55N 45°25' W 083°47'0 0.0
2018-Jun-15 20:28N 45°25' W 083°47'0 0.1
2018-Jun-15 19:58N 45°25' W 083°47'0 0.0
2018-Jun-15 19:28N 45°25' W 083°47'0 0.0
2018-Jun-15 18:58N 45°25' W 083°47'0 0.0
2018-Jun-15 18:30N 45°25' W 083°47'0 0.0
2018-Jun-15 17:58N 45°25' W 083°47'0 0.0
2018-Jun-15 17:28N 45°25' W 083°47'0 0.0
2018-Jun-15 16:58N 45°25' W 083°47'0 0.0
2018-Jun-15 16:28N 45°25' W 083°47'0 0.0
2018-Jun-15 15:58N 45°25' W 083°47'0 0.0
2018-Jun-15 15:28N 45°25' W 083°47'0 0.1
2018-Jun-15 14:58N 45°25' W 083°47'0 0.0
2018-Jun-15 14:28N 45°25' W 083°47'0 0.0
2018-Jun-15 13:58N 45°25' W 083°47'0 0.0
2018-Jun-15 13:28N 45°25' W 083°47'0 0.0
2018-Jun-15 12:59N 45°25' W 083°47'0 0.1
2018-Jun-15 12:28N 45°25' W 083°47'0 0.0
2018-Jun-15 11:58N 45°25' W 083°47'0 0.1
2018-Jun-15 11:28N 45°25' W 083°47'0 0.0
2018-Jun-15 10:58N 45°25' W 083°47'0 0.0
2018-Jun-15 10:28N 45°25' W 083°47'0 0.3
2018-Jun-15 10:00N 45°25' W 083°47'1 2.5
2018-Jun-15 09:30N 45°25' W 083°45'5 9.4
2018-Jun-15 09:00N 45°26' W 083°39'612.6
2018-Jun-15 08:30N 45°24' W 083°30'612.1
2018-Jun-15 08:00N 45°20' W 083°23'2914.5
2018-Jun-15 06:00N 44°54' W 083°06'73 2.2 340 / 201018.627.0 11.1
2018-Jun-13 21:00N 43°48' W 082°24'10612.9 300 / 201011.527.0 13.3 9.9
2018-Jun-13 12:46N 45°24' W 083°29'312.7
2018-Jun-13 12:30N 45°25' W 083°33'612.6
2018-Jun-13 12:01N 45°26' W 083°42'3 6.3
2018-Jun-13 11:30N 45°25' W 083°46'1 1.5
2018-Jun-13 11:00N 45°25' W 083°47'0 0.1
2018-Jun-13 10:30N 45°25' W 083°47'0 0.1
2018-Jun-13 10:00N 45°25' W 083°47'0 0.0
2018-Jun-13 09:30N 45°25' W 083°47'0 0.0
2018-Jun-13 09:00N 45°25' W 083°47'0 0.1
2018-Jun-13 08:30N 45°25' W 083°47'0 0.1
2018-Jun-13 08:00N 45°25' W 083°47'0 0.1
2018-Jun-13 07:30N 45°25' W 083°47'0 0.0
2018-Jun-13 07:00N 45°25' W 083°47'0 0.0
2018-Jun-13 06:31N 45°25' W 083°47'0 0.0
2018-Jun-13 04:05N 45°25' W 083°47'0 0.0
2018-Jun-13 04:00N 45°25' W 083°47'0 0.0
2018-Jun-13 03:29N 45°25' W 083°47'0 0.0
2018-Jun-13 03:00N 45°25' W 083°47'0 0.0
2018-Jun-13 02:30N 45°25' W 083°47'0 0.0
2018-Jun-13 02:00N 45°25' W 083°47'0 0.0
2018-Jun-13 01:31N 45°25' W 083°47'0 0.0
2018-Jun-13 01:00N 45°25' W 083°47'0 0.0
2018-Jun-13 00:30N 45°25' W 083°47'0 0.0
2018-Jun-13 00:00N 45°25' W 083°47'  

Dump ship's entire track history